sensor_id;sensor_type;location;lat;lon;timestamp;pressure;altitude;pressure_sealevel;temperature;humidity
17072;BME280;7731;50.720;6.912;2024-01-27T00:02:21;101915.91;;;2.18;100.00
17072;BME280;7731;50.720;6.912;2024-01-27T00:04:52;101918.50;;;2.22;100.00
17072;BME280;7731;50.720;6.912;2024-01-27T00:07:25;101918.41;;;2.16;100.00
17072;BME280;7731;50.720;6.912;2024-01-27T00:09:58;101914.94;;;2.08;100.00
17072;BME280;7731;50.720;6.912;2024-01-27T00:12:31;101922.69;;;2.19;100.00
17072;BME280;7731;50.720;6.912;2024-01-27T00:15:02;101910.66;;;2.05;100.00
17072;BME280;7731;50.720;6.912;2024-01-27T00:17:33;101913.38;;;2.18;100.00
17072;BME280;7731;50.720;6.912;2024-01-27T00:20:05;101910.84;;;2.19;100.00
17072;BME280;7731;50.720;6.912;2024-01-27T00:22:35;101900.72;;;2.21;100.00
17072;BME280;7731;50.720;6.912;2024-01-27T00:25:09;101903.41;;;2.31;100.00
17072;BME280;7731;50.720;6.912;2024-01-27T00:27:42;101910.16;;;2.29;100.00
17072;BME280;7731;50.720;6.912;2024-01-27T00:30:15;101908.25;;;2.14;100.00
17072;BME280;7731;50.720;6.912;2024-01-27T00:32:45;101906.63;;;2.18;100.00
17072;BME280;7731;50.720;6.912;2024-01-27T00:35:21;101908.22;;;2.13;100.00
17072;BME280;7731;50.720;6.912;2024-01-27T00:37:51;101914.09;;;2.10;100.00
17072;BME280;7731;50.720;6.912;2024-01-27T00:40:21;101913.94;;;2.00;100.00
17072;BME280;7731;50.720;6.912;2024-01-27T00:42:54;101927.66;;;2.11;100.00
17072;BME280;7731;50.720;6.912;2024-01-27T00:45:25;101931.56;;;1.90;100.00
17072;BME280;7731;50.720;6.912;2024-01-27T00:47:57;101938.19;;;1.82;100.00
17072;BME280;7731;50.720;6.912;2024-01-27T00:50:28;101933.38;;;1.99;100.00
17072;BME280;7731;50.720;6.912;2024-01-27T00:52:58;101937.88;;;1.62;100.00
17072;BME280;7731;50.720;6.912;2024-01-27T00:55:28;101926.16;;;1.69;100.00
17072;BME280;7731;50.720;6.912;2024-01-27T00:58:01;101935.50;;;1.71;100.00
17072;BME280;7731;50.720;6.912;2024-01-27T01:00:32;101932.88;;;1.67;100.00
17072;BME280;7731;50.720;6.912;2024-01-27T01:03:08;101936.53;;;1.84;100.00
17072;BME280;7731;50.720;6.912;2024-01-27T01:05:41;101929.19;;;2.03;100.00
17072;BME280;7731;50.720;6.912;2024-01-27T01:08:11;101934.97;;;1.92;100.00
17072;BME280;7731;50.720;6.912;2024-01-27T01:10:57;101939.72;;;1.71;100.00
17072;BME280;7731;50.720;6.912;2024-01-27T01:13:40;101940.66;;;1.77;100.00
17072;BME280;7731;50.720;6.912;2024-01-27T01:16:10;101937.16;;;1.69;100.00
17072;BME280;7731;50.720;6.912;2024-01-27T01:18:41;101943.19;;;1.77;100.00
17072;BME280;7731;50.720;6.912;2024-01-27T01:21:11;101947.31;;;1.71;100.00
17072;BME280;7731;50.720;6.912;2024-01-27T01:23:44;101947.00;;;1.52;100.00
17072;BME280;7731;50.720;6.912;2024-01-27T01:26:14;101944.94;;;1.80;100.00
17072;BME280;7731;50.720;6.912;2024-01-27T01:28:49;101947.50;;;1.83;100.00
17072;BME280;7731;50.720;6.912;2024-01-27T01:31:20;101948.84;;;1.63;100.00
17072;BME280;7731;50.720;6.912;2024-01-27T01:33:53;101957.06;;;1.48;100.00
17072;BME280;7731;50.720;6.912;2024-01-27T01:36:33;101956.28;;;1.53;100.00
17072;BME280;7731;50.720;6.912;2024-01-27T01:39:03;101948.44;;;1.39;100.00
17072;BME280;7731;50.720;6.912;2024-01-27T01:41:34;101945.94;;;1.41;100.00
17072;BME280;7731;50.720;6.912;2024-01-27T01:44:07;101949.16;;;1.31;100.00
17072;BME280;7731;50.720;6.912;2024-01-27T01:46:38;101952.69;;;1.39;100.00
17072;BME280;7731;50.720;6.912;2024-01-27T01:49:08;101952.72;;;1.42;100.00
17072;BME280;7731;50.720;6.912;2024-01-27T01:51:46;101952.78;;;1.45;100.00
17072;BME280;7731;50.720;6.912;2024-01-27T01:54:19;101950.28;;;1.47;100.00
17072;BME280;7731;50.720;6.912;2024-01-27T01:56:57;101942.53;;;1.39;100.00
17072;BME280;7731;50.720;6.912;2024-01-27T01:59:41;101954.28;;;1.34;100.00
17072;BME280;7731;50.720;6.912;2024-01-27T02:02:15;101952.78;;;1.45;100.00
17072;BME280;7731;50.720;6.912;2024-01-27T02:04:45;101951.50;;;1.20;100.00
17072;BME280;7731;50.720;6.912;2024-01-27T02:07:16;101954.88;;;1.20;100.00
17072;BME280;7731;50.720;6.912;2024-01-27T02:09:46;101956.53;;;1.18;100.00
17072;BME280;7731;50.720;6.912;2024-01-27T02:12:19;101961.44;;;1.09;100.00
17072;BME280;7731;50.720;6.912;2024-01-27T02:14:57;101962.19;;;1.05;100.00
17072;BME280;7731;50.720;6.912;2024-01-27T02:17:29;101952.50;;;0.85;100.00
17072;BME280;7731;50.720;6.912;2024-01-27T02:20:00;101950.03;;;0.88;100.00
17072;BME280;7731;50.720;6.912;2024-01-27T02:22:30;101954.34;;;0.93;100.00
17072;BME280;7731;50.720;6.912;2024-01-27T02:25:08;101954.16;;;0.83;100.00
17072;BME280;7731;50.720;6.912;2024-01-27T02:27:39;101958.28;;;0.80;100.00
17072;BME280;7731;50.720;6.912;2024-01-27T02:30:10;101948.94;;;0.76;100.00
17072;BME280;7731;50.720;6.912;2024-01-27T02:32:40;101950.56;;;0.74;100.00
17072;BME280;7731;50.720;6.912;2024-01-27T02:35:11;101949.84;;;0.79;100.00
17072;BME280;7731;50.720;6.912;2024-01-27T02:37:42;101947.47;;;0.87;100.00
17072;BME280;7731;50.720;6.912;2024-01-27T02:40:24;101948.06;;;0.75;100.00
17072;BME280;7731;50.720;6.912;2024-01-27T02:42:55;101955.66;;;0.75;100.00
17072;BME280;7731;50.720;6.912;2024-01-27T02:45:25;101956.44;;;0.71;100.00
17072;BME280;7731;50.720;6.912;2024-01-27T02:47:55;101957.50;;;0.82;100.00
17072;BME280;7731;50.720;6.912;2024-01-27T02:50:26;101958.50;;;0.91;100.00
17072;BME280;7731;50.720;6.912;2024-01-27T02:52:56;101954.97;;;0.82;100.00
17072;BME280;7731;50.720;6.912;2024-01-27T02:55:29;101956.75;;;0.86;100.00
17072;BME280;7731;50.720;6.912;2024-01-27T02:58:00;101953.56;;;0.97;100.00
17072;BME280;7731;50.720;6.912;2024-01-27T03:00:33;101955.31;;;0.99;100.00
17072;BME280;7731;50.720;6.912;2024-01-27T03:03:04;101962.72;;;0.90;100.00
17072;BME280;7731;50.720;6.912;2024-01-27T03:05:37;101960.50;;;0.64;100.00
17072;BME280;7731;50.720;6.912;2024-01-27T03:08:07;101954.59;;;0.64;100.00
17072;BME280;7731;50.720;6.912;2024-01-27T03:10:40;101950.25;;;0.58;100.00
17072;BME280;7731;50.720;6.912;2024-01-27T03:13:21;101968.69;;;0.51;100.00
17072;BME280;7731;50.720;6.912;2024-01-27T03:15:54;101970.22;;;0.46;100.00
17072;BME280;7731;50.720;6.912;2024-01-27T03:18:25;101972.25;;;0.61;100.00
17072;BME280;7731;50.720;6.912;2024-01-27T03:20:55;101971.59;;;0.69;100.00
17072;BME280;7731;50.720;6.912;2024-01-27T03:23:26;101972.16;;;0.56;100.00
17072;BME280;7731;50.720;6.912;2024-01-27T03:26:02;101970.41;;;0.53;100.00
17072;BME280;7731;50.720;6.912;2024-01-27T03:28:33;101966.38;;;0.62;100.00
17072;BME280;7731;50.720;6.912;2024-01-27T03:31:04;101970.22;;;0.46;100.00
17072;BME280;7731;50.720;6.912;2024-01-27T03:33:34;101977.56;;;0.35;100.00
17072;BME280;7731;50.720;6.912;2024-01-27T03:36:11;101968.34;;;0.35;100.00
17072;BME280;7731;50.720;6.912;2024-01-27T03:38:43;101967.50;;;0.76;100.00
17072;BME280;7731;50.720;6.912;2024-01-27T03:41:16;101969.84;;;0.67;100.00
17072;BME280;7731;50.720;6.912;2024-01-27T03:43:46;101977.31;;;0.61;100.00
17072;BME280;7731;50.720;6.912;2024-01-27T03:46:17;101979.56;;;0.48;100.00
17072;BME280;7731;50.720;6.912;2024-01-27T03:48:53;101973.47;;;0.39;100.00
17072;BME280;7731;50.720;6.912;2024-01-27T03:51:24;101975.88;;;0.34;100.00
17072;BME280;7731;50.720;6.912;2024-01-27T03:53:54;101976.22;;;0.49;100.00
17072;BME280;7731;50.720;6.912;2024-01-27T03:56:27;101974.66;;;0.55;100.00
17072;BME280;7731;50.720;6.912;2024-01-27T03:59:12;101983.16;;;0.60;100.00
17072;BME280;7731;50.720;6.912;2024-01-27T04:01:45;101982.28;;;0.58;100.00
17072;BME280;7731;50.720;6.912;2024-01-27T04:04:16;101984.75;;;0.55;100.00
17072;BME280;7731;50.720;6.912;2024-01-27T04:06:46;101986.28;;;0.46;100.00
17072;BME280;7731;50.720;6.912;2024-01-27T04:09:17;101986.34;;;0.49;100.00
17072;BME280;7731;50.720;6.912;2024-01-27T04:11:50;101986.34;;;0.49;100.00
17072;BME280;7731;50.720;6.912;2024-01-27T04:14:23;101990.28;;;0.38;100.00
17072;BME280;7731;50.720;6.912;2024-01-27T04:16:53;101990.91;;;0.28;100.00
17072;BME280;7731;50.720;6.912;2024-01-27T04:19:26;101989.28;;;0.30;100.00
17072;BME280;7731;50.720;6.912;2024-01-27T04:21:57;101986.94;;;0.39;100.00
17072;BME280;7731;50.720;6.912;2024-01-27T04:24:27;101996.44;;;0.11;100.00
17072;BME280;7731;50.720;6.912;2024-01-27T04:27:00;101996.41;;;0.10;100.00
17072;BME280;7731;50.720;6.912;2024-01-27T04:29:37;102007.56;;;0.20;100.00
17072;BME280;7731;50.720;6.912;2024-01-27T04:32:10;102010.72;;;0.09;100.00
17072;BME280;7731;50.720;6.912;2024-01-27T04:34:40;102017.44;;;0.10;100.00
17072;BME280;7731;50.720;6.912;2024-01-27T04:37:13;102011.88;;;0.24;100.00
17072;BME280;7731;50.720;6.912;2024-01-27T04:39:43;102015.97;;;0.19;100.00
17072;BME280;7731;50.720;6.912;2024-01-27T04:42:16;102009.34;;;0.24;100.00
17072;BME280;7731;50.720;6.912;2024-01-27T04:44:47;102006.91;;;0.65;100.00
17072;BME280;7731;50.720;6.912;2024-01-27T04:47:18;102015.91;;;0.53;100.00
17072;BME280;7731;50.720;6.912;2024-01-27T04:49:48;102015.03;;;0.51;100.00
17072;BME280;7731;50.720;6.912;2024-01-27T04:52:18;102009.97;;;0.51;100.00
17072;BME280;7731;50.720;6.912;2024-01-27T04:54:49;102008.19;;;0.47;100.00
17072;BME280;7731;50.720;6.912;2024-01-27T04:57:22;102014.28;;;0.56;100.00
17072;BME280;7731;50.720;6.912;2024-01-27T04:59:52;102013.09;;;0.79;100.00
17072;BME280;7731;50.720;6.912;2024-01-27T05:02:23;102005.09;;;0.99;100.00
17072;BME280;7731;50.720;6.912;2024-01-27T05:04:53;102001.59;;;0.94;100.00
17072;BME280;7731;50.720;6.912;2024-01-27T05:07:23;101997.81;;;0.73;100.00
17072;BME280;7731;50.720;6.912;2024-01-27T05:09:57;101996.84;;;0.68;100.00
17072;BME280;7731;50.720;6.912;2024-01-27T05:12:29;101990.53;;;0.49;100.00
17072;BME280;7731;50.720;6.912;2024-01-27T05:15:00;101988.28;;;0.63;100.00
17072;BME280;7731;50.720;6.912;2024-01-27T05:17:30;101983.31;;;1.07;100.00
17072;BME280;7731;50.720;6.912;2024-01-27T05:20:01;101988.59;;;1.19;100.00
17072;BME280;7731;50.720;6.912;2024-01-27T05:22:34;101987.72;;;1.17;100.00
17072;BME280;7731;50.720;6.912;2024-01-27T05:25:06;102001.78;;;0.62;100.00
17072;BME280;7731;50.720;6.912;2024-01-27T05:27:40;101991.59;;;0.59;100.00
17072;BME280;7731;50.720;6.912;2024-01-27T05:30:17;102006.84;;;0.62;100.00
17072;BME280;7731;50.720;6.912;2024-01-27T05:32:47;102001.50;;;0.49;100.00
17072;BME280;7731;50.720;6.912;2024-01-27T05:35:22;101999.69;;;0.82;100.00
17072;BME280;7731;50.720;6.912;2024-01-27T05:37:55;101996.81;;;1.06;100.00
17072;BME280;7731;50.720;6.912;2024-01-27T05:40:28;101999.16;;;0.98;100.00
17072;BME280;7731;50.720;6.912;2024-01-27T05:43:08;101992.78;;;0.75;100.00
17072;BME280;7731;50.720;6.912;2024-01-27T05:45:38;102000.94;;;0.63;100.00
17072;BME280;7731;50.720;6.912;2024-01-27T05:48:19;101994.88;;;0.55;100.00
17072;BME280;7731;50.720;6.912;2024-01-27T05:50:58;101996.09;;;0.72;100.00
17072;BME280;7731;50.720;6.912;2024-01-27T05:53:31;101987.19;;;0.89;100.00
17072;BME280;7731;50.720;6.912;2024-01-27T05:56:01;101988.88;;;0.91;100.00
17072;BME280;7731;50.720;6.912;2024-01-27T05:58:37;101988.41;;;1.09;100.00
17072;BME280;7731;50.720;6.912;2024-01-27T06:01:08;101997.81;;;0.73;100.00
17072;BME280;7731;50.720;6.912;2024-01-27T06:03:41;101984.50;;;0.42;100.00
17072;BME280;7731;50.720;6.912;2024-01-27T06:06:14;101994.19;;;0.24;100.00
17072;BME280;7731;50.720;6.912;2024-01-27T06:08:45;101990.13;;;0.30;100.00
17072;BME280;7731;50.720;6.912;2024-01-27T06:11:27;101993.31;;;0.61;100.00
17072;BME280;7731;50.720;6.912;2024-01-27T06:14:00;101999.63;;;0.79;100.00
17072;BME280;7731;50.720;6.912;2024-01-27T06:16:30;102000.00;;;0.58;100.00
17072;BME280;7731;50.720;6.912;2024-01-27T06:19:02;102005.72;;;0.50;100.00
17072;BME280;7731;50.720;6.912;2024-01-27T06:21:33;102003.28;;;0.53;100.00
17072;BME280;7731;50.720;6.912;2024-01-27T06:24:04;102006.22;;;0.74;100.00
17072;BME280;7731;50.720;6.912;2024-01-27T06:26:37;102006.25;;;0.75;100.00
17072;BME280;7731;50.720;6.912;2024-01-27T06:29:10;102007.66;;;0.61;100.00
17072;BME280;7731;50.720;6.912;2024-01-27T06:31:41;102008.00;;;0.38;100.00
17072;BME280;7731;50.720;6.912;2024-01-27T06:34:11;102011.97;;;0.65;100.00
17072;BME280;7731;50.720;6.912;2024-01-27T06:36:42;102010.66;;;0.44;100.00
17072;BME280;7731;50.720;6.912;2024-01-27T06:39:12;102007.84;;;0.32;100.00
17072;BME280;7731;50.720;6.912;2024-01-27T06:41:42;102007.91;;;0.35;100.00
17072;BME280;7731;50.720;6.912;2024-01-27T06:44:15;102007.25;;;0.42;100.00
17072;BME280;7731;50.720;6.912;2024-01-27T06:46:54;102008.31;;;0.53;100.00
17072;BME280;7731;50.720;6.912;2024-01-27T06:49:27;102019.03;;;0.81;100.00
17072;BME280;7731;50.720;6.912;2024-01-27T06:51:57;102013.72;;;0.69;100.00
17072;BME280;7731;50.720;6.912;2024-01-27T06:54:31;102013.41;;;0.55;100.00
17072;BME280;7731;50.720;6.912;2024-01-27T06:57:04;102018.84;;;0.72;100.00
17072;BME280;7731;50.720;6.912;2024-01-27T06:59:52;102020.41;;;0.65;100.00
17072;BME280;7731;50.720;6.912;2024-01-27T07:02:27;102017.88;;;1.05;100.00
17072;BME280;7731;50.720;6.912;2024-01-27T07:04:58;102024.56;;;1.03;100.00
17072;BME280;7731;50.720;6.912;2024-01-27T07:07:30;102024.66;;;1.06;100.00
17072;BME280;7731;50.720;6.912;2024-01-27T07:10:01;102026.16;;;0.98;100.00
17072;BME280;7731;50.720;6.912;2024-01-27T07:12:32;102038.06;;;1.02;100.00
17072;BME280;7731;50.720;6.912;2024-01-27T07:15:06;102029.78;;;1.09;100.00
17072;BME280;7731;50.720;6.912;2024-01-27T07:17:45;102028.41;;;1.27;100.00
17072;BME280;7731;50.720;6.912;2024-01-27T07:20:18;102029.63;;;1.03;100.00
17072;BME280;7731;50.720;6.912;2024-01-27T07:22:50;102023.03;;;1.10;100.00
17072;BME280;7731;50.720;6.912;2024-01-27T07:25:21;102032.66;;;0.86;100.00
17072;BME280;7731;50.720;6.912;2024-01-27T07:27:59;102033.22;;;0.73;100.00
17072;BME280;7731;50.720;6.912;2024-01-27T07:30:31;102034.28;;;0.84;100.00
17072;BME280;7731;50.720;6.912;2024-01-27T07:33:02;102045.69;;;0.65;100.00
17072;BME280;7731;50.720;6.912;2024-01-27T07:35:33;102039.94;;;0.71;100.00
17072;BME280;7731;50.720;6.912;2024-01-27T07:38:06;102032.41;;;0.74;100.00
17072;BME280;7731;50.720;6.912;2024-01-27T07:40:37;102035.22;;;0.88;100.00
17072;BME280;7731;50.720;6.912;2024-01-27T07:43:07;102050.66;;;0.61;100.00
17072;BME280;7731;50.720;6.912;2024-01-27T07:45:40;102056.34;;;0.15;100.00
17072;BME280;7731;50.720;6.912;2024-01-27T07:48:12;102052.75;;;0.07;100.00
17072;BME280;7731;50.720;6.912;2024-01-27T07:50:43;102047.94;;;0.16;100.00
17072;BME280;7731;50.720;6.912;2024-01-27T07:53:16;102051.38;;;0.19;100.00
17072;BME280;7731;50.720;6.912;2024-01-27T07:55:49;102063.75;;;0.44;100.00
17072;BME280;7731;50.720;6.912;2024-01-27T07:58:21;102061.88;;;0.35;100.00
17072;BME280;7731;50.720;6.912;2024-01-27T08:00:56;102064.75;;;0.49;100.00
17072;BME280;7731;50.720;6.912;2024-01-27T08:03:26;102074.84;;;0.87;100.00
17072;BME280;7731;50.720;6.912;2024-01-27T08:06:05;102079.28;;;0.60;100.00
17072;BME280;7731;50.720;6.912;2024-01-27T08:08:37;102080.88;;;0.55;100.00
17072;BME280;7731;50.720;6.912;2024-01-27T08:11:13;102086.66;;;0.50;100.00
17072;BME280;7731;50.720;6.912;2024-01-27T08:13:45;102085.63;;;0.42;100.00
17072;BME280;7731;50.720;6.912;2024-01-27T08:16:18;102086.53;;;0.46;100.00
17072;BME280;7731;50.720;6.912;2024-01-27T08:18:48;102084.03;;;0.46;100.00
17072;BME280;7731;50.720;6.912;2024-01-27T08:21:19;102084.19;;;0.53;100.00
17072;BME280;7731;50.720;6.912;2024-01-27T08:23:50;102090.41;;;0.66;100.00
17072;BME280;7731;50.720;6.912;2024-01-27T08:26:29;102086.78;;;0.93;100.00
17072;BME280;7731;50.720;6.912;2024-01-27T08:28:59;102093.13;;;1.12;100.00
17072;BME280;7731;50.720;6.912;2024-01-27T08:31:32;102086.41;;;1.57;100.00
17072;BME280;7731;50.720;6.912;2024-01-27T08:34:05;102089.28;;;2.79;100.00
17072;BME280;7731;50.720;6.912;2024-01-27T08:36:40;102069.59;;;4.11;100.00
17072;BME280;7731;50.720;6.912;2024-01-27T08:39:11;102078.91;;;5.59;100.00
17072;BME280;7731;50.720;6.912;2024-01-27T08:41:42;102065.16;;;7.26;88.01
17072;BME280;7731;50.720;6.912;2024-01-27T08:44:13;102064.81;;;7.91;77.25
17072;BME280;7731;50.720;6.912;2024-01-27T08:46:45;102066.22;;;9.13;73.12
17072;BME280;7731;50.720;6.912;2024-01-27T08:49:16;102071.53;;;8.96;64.36
17072;BME280;7731;50.720;6.912;2024-01-27T08:51:46;102053.47;;;10.24;68.29
17072;BME280;7731;50.720;6.912;2024-01-27T08:54:16;102043.50;;;10.57;53.50
17072;BME280;7731;50.720;6.912;2024-01-27T08:56:47;102040.69;;;11.50;58.28
17072;BME280;7731;50.720;6.912;2024-01-27T08:59:17;102028.38;;;12.01;48.30
17072;BME280;7731;50.720;6.912;2024-01-27T09:01:58;102043.00;;;9.24;57.69
17072;BME280;7731;50.720;6.912;2024-01-27T09:04:31;102049.16;;;9.09;60.88
17072;BME280;7731;50.720;6.912;2024-01-27T09:07:04;102044.22;;;9.59;59.21
17072;BME280;7731;50.720;6.912;2024-01-27T09:09:47;102042.00;;;10.88;56.94
17072;BME280;7731;50.720;6.912;2024-01-27T09:12:17;102038.13;;;11.50;53.29
17072;BME280;7731;50.720;6.912;2024-01-27T09:14:49;102035.44;;;11.94;49.69
17072;BME280;7731;50.720;6.912;2024-01-27T09:17:24;102028.81;;;12.18;48.12
17072;BME280;7731;50.720;6.912;2024-01-27T09:19:54;102025.19;;;11.53;49.60
17072;BME280;7731;50.720;6.912;2024-01-27T09:22:24;102026.34;;;11.01;54.36
17072;BME280;7731;50.720;6.912;2024-01-27T09:24:58;102022.00;;;11.43;49.08
17072;BME280;7731;50.720;6.912;2024-01-27T09:27:30;102017.16;;;10.45;53.31
17072;BME280;7731;50.720;6.912;2024-01-27T09:30:01;102019.72;;;11.69;52.42
17072;BME280;7731;50.720;6.912;2024-01-27T09:32:35;102026.13;;;11.10;50.58
17072;BME280;7731;50.720;6.912;2024-01-27T09:35:08;102032.88;;;10.27;53.17
17072;BME280;7731;50.720;6.912;2024-01-27T09:37:38;102029.59;;;10.18;53.85
17072;BME280;7731;50.720;6.912;2024-01-27T09:40:13;102030.69;;;10.55;53.82
17072;BME280;7731;50.720;6.912;2024-01-27T09:42:51;102016.03;;;10.60;54.28
17072;BME280;7731;50.720;6.912;2024-01-27T09:45:22;102025.81;;;11.25;52.94
17072;BME280;7731;50.720;6.912;2024-01-27T09:48:01;102008.56;;;14.08;43.91
17072;BME280;7731;50.720;6.912;2024-01-27T09:50:34;102016.69;;;13.14;45.97
17072;BME280;7731;50.720;6.912;2024-01-27T09:53:10;102021.03;;;13.70;44.88
17072;BME280;7731;50.720;6.912;2024-01-27T09:55:42;102028.72;;;12.54;47.10
17072;BME280;7731;50.720;6.912;2024-01-27T09:58:16;102025.53;;;11.38;49.33
17072;BME280;7731;50.720;6.912;2024-01-27T10:00:46;102032.50;;;10.48;52.16
17072;BME280;7731;50.720;6.912;2024-01-27T10:03:20;102031.91;;;10.79;52.07
17072;BME280;7731;50.720;6.912;2024-01-27T10:05:52;102024.84;;;10.90;52.19
17072;BME280;7731;50.720;6.912;2024-01-27T10:08:23;102031.53;;;10.98;52.79
17072;BME280;7731;50.720;6.912;2024-01-27T10:10:57;102043.91;;;10.80;54.06
17072;BME280;7731;50.720;6.912;2024-01-27T10:13:27;102038.31;;;11.80;53.59
17072;BME280;7731;50.720;6.912;2024-01-27T10:16:01;102043.72;;;10.43;55.70
17072;BME280;7731;50.720;6.912;2024-01-27T10:18:35;102050.47;;;10.50;57.26
17072;BME280;7731;50.720;6.912;2024-01-27T10:21:13;102052.63;;;10.23;57.61
17072;BME280;7731;50.720;6.912;2024-01-27T10:23:43;102051.47;;;11.68;54.15
17072;BME280;7731;50.720;6.912;2024-01-27T10:26:14;102047.59;;;10.67;55.95
17072;BME280;7731;50.720;6.912;2024-01-27T10:28:53;102048.56;;;11.05;57.20
17072;BME280;7731;50.720;6.912;2024-01-27T10:31:27;102049.09;;;11.19;56.84
17072;BME280;7731;50.720;6.912;2024-01-27T10:34:09;102049.41;;;11.04;55.13
17072;BME280;7731;50.720;6.912;2024-01-27T10:36:47;102037.09;;;11.20;54.81
17072;BME280;7731;50.720;6.912;2024-01-27T10:39:18;102037.44;;;11.04;55.94
17072;BME280;7731;50.720;6.912;2024-01-27T10:41:51;102032.38;;;11.39;54.83
17072;BME280;7731;50.720;6.912;2024-01-27T10:44:25;102028.16;;;12.10;51.78
17072;BME280;7731;50.720;6.912;2024-01-27T10:47:01;102044.38;;;11.40;54.04
17072;BME280;7731;50.720;6.912;2024-01-27T10:49:42;102041.81;;;12.46;51.71
17072;BME280;7731;50.720;6.912;2024-01-27T10:52:18;102049.28;;;12.89;50.67
17072;BME280;7731;50.720;6.912;2024-01-27T10:55:07;102046.31;;;11.29;52.93
17072;BME280;7731;50.720;6.912;2024-01-27T10:57:46;102042.44;;;11.50;53.43
17072;BME280;7731;50.720;6.912;2024-01-27T11:00:23;102050.34;;;10.06;56.24
17072;BME280;7731;50.720;6.912;2024-01-27T11:03:01;102055.72;;;9.91;57.44
17072;BME280;7731;50.720;6.912;2024-01-27T11:05:39;102051.75;;;9.70;59.58
17072;BME280;7731;50.720;6.912;2024-01-27T11:08:13;102062.22;;;9.57;60.55
17072;BME280;7731;50.720;6.912;2024-01-27T11:10:44;102056.28;;;9.54;62.38
17072;BME280;7731;50.720;6.912;2024-01-27T11:13:15;102049.59;;;9.98;60.25
17072;BME280;7731;50.720;6.912;2024-01-27T11:15:51;102042.84;;;10.45;57.04
17072;BME280;7731;50.720;6.912;2024-01-27T11:18:22;102039.41;;;10.46;56.99
17072;BME280;7731;50.720;6.912;2024-01-27T11:20:57;102033.13;;;11.44;57.50
17072;BME280;7731;50.720;6.912;2024-01-27T11:23:35;102032.81;;;11.95;52.98
17072;BME280;7731;50.720;6.912;2024-01-27T11:26:07;102042.47;;;11.48;52.63
17072;BME280;7731;50.720;6.912;2024-01-27T11:28:41;102034.09;;;12.78;51.09
17072;BME280;7731;50.720;6.912;2024-01-27T11:31:12;102030.97;;;13.26;47.38
17072;BME280;7731;50.720;6.912;2024-01-27T11:33:43;102034.78;;;13.13;48.69
17072;BME280;7731;50.720;6.912;2024-01-27T11:36:28;102035.41;;;14.04;47.27
17072;BME280;7731;50.720;6.912;2024-01-27T11:39:01;102039.97;;;12.83;48.35
17072;BME280;7731;50.720;6.912;2024-01-27T11:41:31;102031.63;;;13.33;46.90
17072;BME280;7731;50.720;6.912;2024-01-27T11:44:01;102045.25;;;11.78;50.23
17072;BME280;7731;50.720;6.912;2024-01-27T11:46:32;102036.78;;;12.42;49.03
17072;BME280;7731;50.720;6.912;2024-01-27T11:49:03;102052.81;;;11.47;51.38
17072;BME280;7731;50.720;6.912;2024-01-27T11:51:36;102054.91;;;11.67;50.99
17072;BME280;7731;50.720;6.912;2024-01-27T11:54:09;102049.19;;;11.15;51.33
17072;BME280;7731;50.720;6.912;2024-01-27T11:56:40;102047.22;;;10.85;53.13
17072;BME280;7731;50.720;6.912;2024-01-27T11:59:10;102042.19;;;11.23;52.00
17072;BME280;7731;50.720;6.912;2024-01-27T12:01:50;102045.50;;;11.28;50.99
17072;BME280;7731;50.720;6.912;2024-01-27T12:04:20;102038.16;;;12.55;49.08
17072;BME280;7731;50.720;6.912;2024-01-27T12:06:54;102048.34;;;11.92;51.23
17072;BME280;7731;50.720;6.912;2024-01-27T12:09:24;102037.19;;;12.26;50.79
17072;BME280;7731;50.720;6.912;2024-01-27T12:11:58;102034.34;;;12.68;48.88
17072;BME280;7731;50.720;6.912;2024-01-27T12:14:38;102040.84;;;12.82;48.06
17072;BME280;7731;50.720;6.912;2024-01-27T12:17:15;102042.69;;;12.12;50.82
17072;BME280;7731;50.720;6.912;2024-01-27T12:19:55;102039.06;;;12.53;48.49
17072;BME280;7731;50.720;6.912;2024-01-27T12:22:29;102029.84;;;11.75;50.18
17072;BME280;7731;50.720;6.912;2024-01-27T12:25:10;102039.28;;;10.96;52.10
17072;BME280;7731;50.720;6.912;2024-01-27T12:27:43;102041.69;;;10.10;53.17
17072;BME280;7731;50.720;6.912;2024-01-27T12:30:16;102036.97;;;9.28;55.58
17072;BME280;7731;50.720;6.912;2024-01-27T12:33:13;102029.63;;;9.00;55.83
17072;BME280;7731;50.720;6.912;2024-01-27T12:35:50;102023.31;;;9.83;55.27
17072;BME280;7731;50.720;6.912;2024-01-27T12:38:25;102028.09;;;10.05;53.65
17072;BME280;7731;50.720;6.912;2024-01-27T12:41:09;102016.13;;;10.04;52.47
17072;BME280;7731;50.720;6.912;2024-01-27T12:43:39;102016.56;;;9.76;53.81
17072;BME280;7731;50.720;6.912;2024-01-27T12:46:12;102018.22;;;9.21;54.96
17072;BME280;7731;50.720;6.912;2024-01-27T12:48:47;102017.03;;;9.45;53.58
17072;BME280;7731;50.720;6.912;2024-01-27T12:51:23;102014.97;;;9.10;54.41
17072;BME280;7731;50.720;6.912;2024-01-27T12:53:59;102011.41;;;9.79;52.50
17072;BME280;7731;50.720;6.912;2024-01-27T12:56:29;102007.06;;;9.85;51.41
17072;BME280;7731;50.720;6.912;2024-01-27T12:59:05;102013.84;;;9.86;51.26
17072;BME280;7731;50.720;6.912;2024-01-27T13:01:42;102022.19;;;10.00;50.85
17072;BME280;7731;50.720;6.912;2024-01-27T13:04:13;102012.44;;;9.68;51.98
17072;BME280;7731;50.720;6.912;2024-01-27T13:06:46;102011.91;;;10.01;51.03
17072;BME280;7731;50.720;6.912;2024-01-27T13:09:19;102015.06;;;9.02;52.84
17072;BME280;7731;50.720;6.912;2024-01-27T13:11:50;102011.63;;;9.05;55.43
17072;BME280;7731;50.720;6.912;2024-01-27T13:14:25;102003.56;;;9.31;54.74
17072;BME280;7731;50.720;6.912;2024-01-27T13:16:56;102006.34;;;9.17;53.76
17072;BME280;7731;50.720;6.912;2024-01-27T13:19:28;101997.38;;;9.44;54.19
17072;BME280;7731;50.720;6.912;2024-01-27T13:21:59;101991.34;;;9.48;53.64
17072;BME280;7731;50.720;6.912;2024-01-27T13:24:35;101983.81;;;9.36;52.85
17072;BME280;7731;50.720;6.912;2024-01-27T13:27:06;101987.16;;;8.78;52.89
17072;BME280;7731;50.720;6.912;2024-01-27T13:29:39;101982.34;;;8.53;55.32
17072;BME280;7731;50.720;6.912;2024-01-27T13:32:10;101991.00;;;8.36;56.60
17072;BME280;7731;50.720;6.912;2024-01-27T13:34:43;101987.13;;;8.81;55.55